sensor_id;sensor_type;location;lat;lon;timestamp;P1;durP1;ratioP1;P2;durP2;ratioP2
6101;SDS011;3081;50.584;7.032;2023-04-24T00:02:25;5.13;;;1.00;;
6101;SDS011;3081;50.584;7.032;2023-04-24T00:04:52;2.70;;;0.80;;
6101;SDS011;3081;50.584;7.032;2023-04-24T00:07:19;2.70;;;0.70;;
6101;SDS011;3081;50.584;7.032;2023-04-24T00:09:46;2.67;;;0.60;;
6101;SDS011;3081;50.584;7.032;2023-04-24T00:12:13;2.67;;;0.80;;
6101;SDS011;3081;50.584;7.032;2023-04-24T00:14:40;2.63;;;0.60;;
6101;SDS011;3081;50.584;7.032;2023-04-24T00:17:07;2.60;;;0.70;;
6101;SDS011;3081;50.584;7.032;2023-04-24T00:19:35;2.40;;;0.60;;
6101;SDS011;3081;50.584;7.032;2023-04-24T00:22:02;2.57;;;0.63;;
6101;SDS011;3081;50.584;7.032;2023-04-24T00:24:29;2.60;;;0.80;;
6101;SDS011;3081;50.584;7.032;2023-04-24T00:26:56;2.50;;;0.60;;
6101;SDS011;3081;50.584;7.032;2023-04-24T00:29:23;2.60;;;0.70;;
6101;SDS011;3081;50.584;7.032;2023-04-24T00:31:50;2.30;;;0.63;;
6101;SDS011;3081;50.584;7.032;2023-04-24T00:34:17;4.33;;;0.60;;
6101;SDS011;3081;50.584;7.032;2023-04-24T00:36:45;2.97;;;0.70;;
6101;SDS011;3081;50.584;7.032;2023-04-24T00:39:14;2.70;;;0.70;;
6101;SDS011;3081;50.584;7.032;2023-04-24T00:41:40;2.20;;;0.60;;
6101;SDS011;3081;50.584;7.032;2023-04-24T00:44:08;2.77;;;0.60;;
6101;SDS011;3081;50.584;7.032;2023-04-24T00:46:35;2.13;;;0.57;;
6101;SDS011;3081;50.584;7.032;2023-04-24T00:49:02;3.97;;;0.80;;
6101;SDS011;3081;50.584;7.032;2023-04-24T00:51:30;2.40;;;0.60;;
6101;SDS011;3081;50.584;7.032;2023-04-24T00:53:59;2.43;;;0.70;;
6101;SDS011;3081;50.584;7.032;2023-04-24T00:56:26;2.10;;;0.60;;
6101;SDS011;3081;50.584;7.032;2023-04-24T00:58:53;2.37;;;0.53;;
6101;SDS011;3081;50.584;7.032;2023-04-24T01:01:21;3.97;;;0.70;;
6101;SDS011;3081;50.584;7.032;2023-04-24T01:03:48;3.93;;;0.70;;
6101;SDS011;3081;50.584;7.032;2023-04-24T01:06:16;2.30;;;0.60;;
6101;SDS011;3081;50.584;7.032;2023-04-24T01:08:45;2.10;;;0.60;;
6101;SDS011;3081;50.584;7.032;2023-04-24T01:11:15;2.57;;;0.83;;
6101;SDS011;3081;50.584;7.032;2023-04-24T01:13:42;2.47;;;0.60;;
6101;SDS011;3081;50.584;7.032;2023-04-24T01:16:09;3.70;;;1.17;;
6101;SDS011;3081;50.584;7.032;2023-04-24T01:18:36;2.50;;;0.90;;
6101;SDS011;3081;50.584;7.032;2023-04-24T01:21:03;2.40;;;0.50;;
6101;SDS011;3081;50.584;7.032;2023-04-24T01:23:32;2.07;;;0.50;;
6101;SDS011;3081;50.584;7.032;2023-04-24T01:25:59;2.40;;;0.90;;
6101;SDS011;3081;50.584;7.032;2023-04-24T01:28:26;3.10;;;1.23;;
6101;SDS011;3081;50.584;7.032;2023-04-24T01:30:53;3.60;;;1.00;;
6101;SDS011;3081;50.584;7.032;2023-04-24T01:33:21;5.40;;;1.47;;
6101;SDS011;3081;50.584;7.032;2023-04-24T01:35:48;4.30;;;1.67;;
6101;SDS011;3081;50.584;7.032;2023-04-24T01:38:15;4.30;;;2.13;;
6101;SDS011;3081;50.584;7.032;2023-04-24T01:40:43;5.07;;;1.63;;
6101;SDS011;3081;50.584;7.032;2023-04-24T01:43:11;3.20;;;1.23;;
6101;SDS011;3081;50.584;7.032;2023-04-24T01:45:38;3.73;;;1.53;;
6101;SDS011;3081;50.584;7.032;2023-04-24T01:48:05;4.20;;;1.50;;
6101;SDS011;3081;50.584;7.032;2023-04-24T01:50:32;5.43;;;1.63;;
6101;SDS011;3081;50.584;7.032;2023-04-24T01:52:59;2.57;;;1.10;;
6101;SDS011;3081;50.584;7.032;2023-04-24T01:55:26;8.20;;;1.50;;
6101;SDS011;3081;50.584;7.032;2023-04-24T01:57:55;3.43;;;1.40;;
6101;SDS011;3081;50.584;7.032;2023-04-24T02:00:22;3.50;;;1.33;;
6101;SDS011;3081;50.584;7.032;2023-04-24T02:02:50;3.40;;;1.37;;
6101;SDS011;3081;50.584;7.032;2023-04-24T02:05:17;3.60;;;1.37;;
6101;SDS011;3081;50.584;7.032;2023-04-24T02:07:44;3.20;;;1.40;;
6101;SDS011;3081;50.584;7.032;2023-04-24T02:10:10;3.43;;;1.50;;
6101;SDS011;3081;50.584;7.032;2023-04-24T02:12:37;5.33;;;1.80;;
6101;SDS011;3081;50.584;7.032;2023-04-24T02:15:06;3.40;;;1.10;;
6101;SDS011;3081;50.584;7.032;2023-04-24T02:17:33;5.57;;;2.20;;
6101;SDS011;3081;50.584;7.032;2023-04-24T02:20:01;5.10;;;2.63;;
6101;SDS011;3081;50.584;7.032;2023-04-24T02:22:28;4.50;;;1.87;;
6101;SDS011;3081;50.584;7.032;2023-04-24T02:24:55;6.83;;;3.50;;
6101;SDS011;3081;50.584;7.032;2023-04-24T02:27:22;6.90;;;3.20;;
6101;SDS011;3081;50.584;7.032;2023-04-24T02:29:49;5.20;;;2.47;;
6101;SDS011;3081;50.584;7.032;2023-04-24T02:32:17;5.90;;;2.40;;
6101;SDS011;3081;50.584;7.032;2023-04-24T02:34:44;6.20;;;3.30;;
6101;SDS011;3081;50.584;7.032;2023-04-24T02:37:11;6.90;;;3.70;;
6101;SDS011;3081;50.584;7.032;2023-04-24T02:39:38;4.30;;;1.73;;
6101;SDS011;3081;50.584;7.032;2023-04-24T02:42:05;7.23;;;3.90;;
6101;SDS011;3081;50.584;7.032;2023-04-24T02:44:33;5.90;;;2.93;;
6101;SDS011;3081;50.584;7.032;2023-04-24T02:47:00;6.90;;;3.23;;
6101;SDS011;3081;50.584;7.032;2023-04-24T02:49:28;7.33;;;3.50;;
6101;SDS011;3081;50.584;7.032;2023-04-24T02:51:55;5.97;;;2.97;;
6101;SDS011;3081;50.584;7.032;2023-04-24T02:54:22;7.00;;;3.43;;
6101;SDS011;3081;50.584;7.032;2023-04-24T02:56:49;8.47;;;3.23;;
6101;SDS011;3081;50.584;7.032;2023-04-24T02:59:15;4.90;;;2.30;;
6101;SDS011;3081;50.584;7.032;2023-04-24T03:01:42;8.83;;;3.97;;
6101;SDS011;3081;50.584;7.032;2023-04-24T03:04:09;5.00;;;2.53;;
6101;SDS011;3081;50.584;7.032;2023-04-24T03:06:38;5.50;;;3.50;;
6101;SDS011;3081;50.584;7.032;2023-04-24T03:09:04;6.00;;;3.30;;
6101;SDS011;3081;50.584;7.032;2023-04-24T03:11:31;6.30;;;3.40;;
6101;SDS011;3081;50.584;7.032;2023-04-24T03:13:58;5.10;;;2.70;;
6101;SDS011;3081;50.584;7.032;2023-04-24T03:16:25;6.00;;;3.17;;
6101;SDS011;3081;50.584;7.032;2023-04-24T03:18:52;7.20;;;4.17;;
6101;SDS011;3081;50.584;7.032;2023-04-24T03:21:19;6.53;;;3.53;;
6101;SDS011;3081;50.584;7.032;2023-04-24T03:23:47;5.67;;;2.83;;
6101;SDS011;3081;50.584;7.032;2023-04-24T03:26:14;7.10;;;3.93;;
6101;SDS011;3081;50.584;7.032;2023-04-24T03:28:41;7.10;;;3.80;;
6101;SDS011;3081;50.584;7.032;2023-04-24T03:31:08;6.87;;;3.40;;
6101;SDS011;3081;50.584;7.032;2023-04-24T03:33:35;7.20;;;4.53;;
6101;SDS011;3081;50.584;7.032;2023-04-24T03:36:02;7.50;;;4.40;;
6101;SDS011;3081;50.584;7.032;2023-04-24T03:38:30;10.63;;;4.00;;
6101;SDS011;3081;50.584;7.032;2023-04-24T03:40:58;8.50;;;4.27;;
6101;SDS011;3081;50.584;7.032;2023-04-24T03:43:25;7.63;;;4.33;;
6101;SDS011;3081;50.584;7.032;2023-04-24T03:45:52;6.97;;;3.40;;
6101;SDS011;3081;50.584;7.032;2023-04-24T03:48:19;9.03;;;4.90;;
6101;SDS011;3081;50.584;7.032;2023-04-24T03:50:46;6.77;;;3.63;;
6101;SDS011;3081;50.584;7.032;2023-04-24T03:53:13;8.90;;;4.17;;
6101;SDS011;3081;50.584;7.032;2023-04-24T03:55:40;8.67;;;5.40;;
6101;SDS011;3081;50.584;7.032;2023-04-24T03:58:08;5.63;;;2.90;;
6101;SDS011;3081;50.584;7.032;2023-04-24T04:00:36;8.10;;;4.30;;
6101;SDS011;3081;50.584;7.032;2023-04-24T04:03:05;5.47;;;3.40;;
6101;SDS011;3081;50.584;7.032;2023-04-24T04:05:32;8.13;;;3.37;;
6101;SDS011;3081;50.584;7.032;2023-04-24T04:07:59;6.80;;;3.63;;
6101;SDS011;3081;50.584;7.032;2023-04-24T04:10:26;7.70;;;3.10;;
6101;SDS011;3081;50.584;7.032;2023-04-24T04:12:52;7.17;;;3.90;;
6101;SDS011;3081;50.584;7.032;2023-04-24T04:15:21;6.80;;;4.03;;
6101;SDS011;3081;50.584;7.032;2023-04-24T04:17:48;7.50;;;3.77;;
6101;SDS011;3081;50.584;7.032;2023-04-24T04:20:14;7.83;;;5.03;;
6101;SDS011;3081;50.584;7.032;2023-04-24T04:22:41;8.87;;;3.93;;
6101;SDS011;3081;50.584;7.032;2023-04-24T04:25:08;7.20;;;4.60;;
6101;SDS011;3081;50.584;7.032;2023-04-24T04:27:36;9.97;;;5.07;;
6101;SDS011;3081;50.584;7.032;2023-04-24T04:30:04;10.70;;;3.73;;
6101;SDS011;3081;50.584;7.032;2023-04-24T04:32:33;6.30;;;2.87;;
6101;SDS011;3081;50.584;7.032;2023-04-24T04:35:00;10.90;;;3.90;;
6101;SDS011;3081;50.584;7.032;2023-04-24T04:37:28;5.00;;;2.50;;
6101;SDS011;3081;50.584;7.032;2023-04-24T04:39:56;9.20;;;3.63;;
6101;SDS011;3081;50.584;7.032;2023-04-24T04:42:23;5.00;;;2.17;;
6101;SDS011;3081;50.584;7.032;2023-04-24T04:44:50;8.27;;;2.93;;
6101;SDS011;3081;50.584;7.032;2023-04-24T04:47:17;7.37;;;3.60;;
6101;SDS011;3081;50.584;7.032;2023-04-24T04:49:48;6.37;;;3.80;;
6101;SDS011;3081;50.584;7.032;2023-04-24T04:52:16;8.10;;;4.00;;
6101;SDS011;3081;50.584;7.032;2023-04-24T04:54:43;4.20;;;2.10;;
6101;SDS011;3081;50.584;7.032;2023-04-24T04:57:11;4.63;;;2.37;;
6101;SDS011;3081;50.584;7.032;2023-04-24T04:59:38;9.47;;;4.50;;
6101;SDS011;3081;50.584;7.032;2023-04-24T05:02:06;7.87;;;4.00;;
6101;SDS011;3081;50.584;7.032;2023-04-24T05:04:33;6.77;;;3.90;;
6101;SDS011;3081;50.584;7.032;2023-04-24T05:07:01;8.93;;;3.30;;
6101;SDS011;3081;50.584;7.032;2023-04-24T05:09:28;5.73;;;3.07;;
6101;SDS011;3081;50.584;7.032;2023-04-24T05:11:55;7.80;;;4.00;;
6101;SDS011;3081;50.584;7.032;2023-04-24T05:14:22;7.87;;;3.10;;
6101;SDS011;3081;50.584;7.032;2023-04-24T05:16:49;6.27;;;3.50;;
6101;SDS011;3081;50.584;7.032;2023-04-24T05:19:16;5.67;;;2.53;;
6101;SDS011;3081;50.584;7.032;2023-04-24T05:21:42;6.70;;;2.60;;
6101;SDS011;3081;50.584;7.032;2023-04-24T05:24:11;6.53;;;3.30;;
6101;SDS011;3081;50.584;7.032;2023-04-24T05:26:38;10.70;;;4.50;;
6101;SDS011;3081;50.584;7.032;2023-04-24T05:29:05;8.03;;;3.00;;
6101;SDS011;3081;50.584;7.032;2023-04-24T05:31:32;7.13;;;3.90;;
6101;SDS011;3081;50.584;7.032;2023-04-24T05:33:59;9.40;;;4.47;;
6101;SDS011;3081;50.584;7.032;2023-04-24T05:36:26;6.43;;;3.80;;
6101;SDS011;3081;50.584;7.032;2023-04-24T05:38:53;8.27;;;3.40;;
6101;SDS011;3081;50.584;7.032;2023-04-24T05:41:21;10.60;;;3.87;;
6101;SDS011;3081;50.584;7.032;2023-04-24T05:43:48;9.10;;;4.17;;
6101;SDS011;3081;50.584;7.032;2023-04-24T05:46:16;6.80;;;2.83;;
6101;SDS011;3081;50.584;7.032;2023-04-24T05:48:43;7.80;;;3.90;;
6101;SDS011;3081;50.584;7.032;2023-04-24T05:51:09;9.37;;;3.97;;
6101;SDS011;3081;50.584;7.032;2023-04-24T05:53:36;6.50;;;3.10;;
6101;SDS011;3081;50.584;7.032;2023-04-24T05:56:03;8.77;;;5.07;;
6101;SDS011;3081;50.584;7.032;2023-04-24T05:58:32;7.20;;;3.57;;
6101;SDS011;3081;50.584;7.032;2023-04-24T06:00:59;7.47;;;3.60;;
6101;SDS011;3081;50.584;7.032;2023-04-24T06:03:26;8.17;;;4.00;;
6101;SDS011;3081;50.584;7.032;2023-04-24T06:05:53;9.00;;;4.23;;
6101;SDS011;3081;50.584;7.032;2023-04-24T06:08:21;10.97;;;5.90;;
6101;SDS011;3081;50.584;7.032;2023-04-24T06:10:48;11.07;;;5.20;;
6101;SDS011;3081;50.584;7.032;2023-04-24T06:13:15;9.37;;;4.43;;
6101;SDS011;3081;50.584;7.032;2023-04-24T06:15:43;8.10;;;4.30;;
6101;SDS011;3081;50.584;7.032;2023-04-24T06:18:10;9.70;;;5.53;;
6101;SDS011;3081;50.584;7.032;2023-04-24T06:20:37;11.67;;;5.00;;
6101;SDS011;3081;50.584;7.032;2023-04-24T06:23:04;12.23;;;5.70;;
6101;SDS011;3081;50.584;7.032;2023-04-24T06:25:31;9.20;;;4.70;;
6101;SDS011;3081;50.584;7.032;2023-04-24T06:27:58;9.80;;;5.10;;
6101;SDS011;3081;50.584;7.032;2023-04-24T06:30:25;9.83;;;4.43;;
6101;SDS011;3081;50.584;7.032;2023-04-24T06:32:54;9.10;;;4.70;;
6101;SDS011;3081;50.584;7.032;2023-04-24T06:35:21;9.03;;;5.23;;
6101;SDS011;3081;50.584;7.032;2023-04-24T06:37:48;7.90;;;3.83;;
6101;SDS011;3081;50.584;7.032;2023-04-24T06:40:15;8.40;;;4.20;;
6101;SDS011;3081;50.584;7.032;2023-04-24T06:42:43;8.67;;;4.47;;
6101;SDS011;3081;50.584;7.032;2023-04-24T06:45:10;8.50;;;3.70;;
6101;SDS011;3081;50.584;7.032;2023-04-24T06:47:37;8.67;;;4.10;;
6101;SDS011;3081;50.584;7.032;2023-04-24T06:50:06;8.90;;;3.90;;
6101;SDS011;3081;50.584;7.032;2023-04-24T06:52:33;9.67;;;4.63;;
6101;SDS011;3081;50.584;7.032;2023-04-24T06:55:00;6.43;;;2.13;;
6101;SDS011;3081;50.584;7.032;2023-04-24T06:57:28;8.23;;;2.77;;
6101;SDS011;3081;50.584;7.032;2023-04-24T06:59:56;7.87;;;2.73;;
6101;SDS011;3081;50.584;7.032;2023-04-24T07:02:24;8.20;;;4.03;;
6101;SDS011;3081;50.584;7.032;2023-04-24T07:04:51;10.90;;;2.10;;
6101;SDS011;3081;50.584;7.032;2023-04-24T07:07:19;6.80;;;2.53;;
6101;SDS011;3081;50.584;7.032;2023-04-24T07:09:46;5.40;;;1.80;;
6101;SDS011;3081;50.584;7.032;2023-04-24T07:12:13;10.10;;;2.87;;
6101;SDS011;3081;50.584;7.032;2023-04-24T07:14:42;6.77;;;2.30;;
6101;SDS011;3081;50.584;7.032;2023-04-24T07:17:08;5.63;;;1.93;;
6101;SDS011;3081;50.584;7.032;2023-04-24T07:19:37;6.77;;;2.10;;
6101;SDS011;3081;50.584;7.032;2023-04-24T07:22:04;5.50;;;1.80;;
6101;SDS011;3081;50.584;7.032;2023-04-24T07:24:32;5.30;;;1.63;;
6101;SDS011;3081;50.584;7.032;2023-04-24T07:26:59;6.43;;;2.30;;
6101;SDS011;3081;50.584;7.032;2023-04-24T07:29:27;5.97;;;1.80;;
6101;SDS011;3081;50.584;7.032;2023-04-24T07:31:54;5.60;;;1.80;;
6101;SDS011;3081;50.584;7.032;2023-04-24T07:34:21;6.13;;;2.37;;
6101;SDS011;3081;50.584;7.032;2023-04-24T07:36:48;6.10;;;2.13;;
6101;SDS011;3081;50.584;7.032;2023-04-24T07:39:15;5.47;;;1.90;;
6101;SDS011;3081;50.584;7.032;2023-04-24T07:41:43;6.30;;;2.07;;
6101;SDS011;3081;50.584;7.032;2023-04-24T07:44:10;4.80;;;1.57;;
6101;SDS011;3081;50.584;7.032;2023-04-24T07:46:37;5.17;;;1.90;;
6101;SDS011;3081;50.584;7.032;2023-04-24T07:49:04;6.13;;;1.63;;
6101;SDS011;3081;50.584;7.032;2023-04-24T07:51:31;4.63;;;1.33;;
6101;SDS011;3081;50.584;7.032;2023-04-24T07:54:03;3.77;;;1.17;;
6101;SDS011;3081;50.584;7.032;2023-04-24T07:56:30;4.03;;;1.30;;
6101;SDS011;3081;50.584;7.032;2023-04-24T07:58:59;3.20;;;1.23;;
6101;SDS011;3081;50.584;7.032;2023-04-24T08:01:27;2.37;;;0.87;;
6101;SDS011;3081;50.584;7.032;2023-04-24T08:03:54;2.90;;;1.27;;
6101;SDS011;3081;50.584;7.032;2023-04-24T08:06:21;2.77;;;1.30;;
6101;SDS011;3081;50.584;7.032;2023-04-24T08:08:48;3.17;;;1.40;;
6101;SDS011;3081;50.584;7.032;2023-04-24T08:11:16;2.90;;;1.10;;
6101;SDS011;3081;50.584;7.032;2023-04-24T08:13:43;1.70;;;0.50;;
6101;SDS011;3081;50.584;7.032;2023-04-24T08:16:11;4.77;;;1.07;;
6101;SDS011;3081;50.584;7.032;2023-04-24T08:18:38;2.27;;;0.70;;
6101;SDS011;3081;50.584;7.032;2023-04-24T08:21:05;2.00;;;0.80;;
6101;SDS011;3081;50.584;7.032;2023-04-24T08:23:32;1.97;;;0.60;;
6101;SDS011;3081;50.584;7.032;2023-04-24T08:25:59;4.80;;;0.70;;
6101;SDS011;3081;50.584;7.032;2023-04-24T08:28:26;1.70;;;0.50;;
6101;SDS011;3081;50.584;7.032;2023-04-24T08:30:53;1.57;;;0.60;;
6101;SDS011;3081;50.584;7.032;2023-04-24T08:33:22;1.67;;;0.60;;
6101;SDS011;3081;50.584;7.032;2023-04-24T08:35:49;1.53;;;0.50;;
6101;SDS011;3081;50.584;7.032;2023-04-24T08:38:16;2.20;;;0.80;;
6101;SDS011;3081;50.584;7.032;2023-04-24T08:40:43;1.70;;;0.70;;
6101;SDS011;3081;50.584;7.032;2023-04-24T08:43:11;1.60;;;0.50;;
6101;SDS011;3081;50.584;7.032;2023-04-24T08:45:39;1.63;;;0.70;;
6101;SDS011;3081;50.584;7.032;2023-04-24T08:48:06;1.60;;;0.60;;
6101;SDS011;3081;50.584;7.032;2023-04-24T08:50:36;1.50;;;0.50;;
6101;SDS011;3081;50.584;7.032;2023-04-24T08:53:03;1.30;;;0.50;;
6101;SDS011;3081;50.584;7.032;2023-04-24T08:55:30;1.80;;;0.60;;
6101;SDS011;3081;50.584;7.032;2023-04-24T08:57:59;2.27;;;0.80;;
6101;SDS011;3081;50.584;7.032;2023-04-24T09:00:28;1.30;;;0.40;;
6101;SDS011;3081;50.584;7.032;2023-04-24T09:02:55;1.43;;;0.60;;
6101;SDS011;3081;50.584;7.032;2023-04-24T09:05:23;1.43;;;0.60;;
6101;SDS011;3081;50.584;7.032;2023-04-24T09:07:53;1.37;;;0.50;;
6101;SDS011;3081;50.584;7.032;2023-04-24T09:10:21;3.57;;;0.90;;
6101;SDS011;3081;50.584;7.032;2023-04-24T09:12:50;1.60;;;0.60;;
6101;SDS011;3081;50.584;7.032;2023-04-24T09:15:17;2.47;;;0.93;;
6101;SDS011;3081;50.584;7.032;2023-04-24T09:17:45;1.60;;;0.50;;
6101;SDS011;3081;50.584;7.032;2023-04-24T09:20:12;1.60;;;0.57;;
6101;SDS011;3081;50.584;7.032;2023-04-24T09:22:39;1.80;;;0.60;;
6101;SDS011;3081;50.584;7.032;2023-04-24T09:25:09;1.93;;;0.60;;
6101;SDS011;3081;50.584;7.032;2023-04-24T09:27:41;3.07;;;1.00;;
6101;SDS011;3081;50.584;7.032;2023-04-24T09:30:09;2.20;;;0.90;;
6101;SDS011;3081;50.584;7.032;2023-04-24T09:32:36;2.13;;;0.77;;
6101;SDS011;3081;50.584;7.032;2023-04-24T09:35:07;2.30;;;0.80;;
6101;SDS011;3081;50.584;7.032;2023-04-24T09:37:35;6.53;;;0.90;;
6101;SDS011;3081;50.584;7.032;2023-04-24T09:40:11;3.27;;;0.80;;
6101;SDS011;3081;50.584;7.032;2023-04-24T09:42:41;3.50;;;1.17;;
6101;SDS011;3081;50.584;7.032;2023-04-24T09:45:10;2.43;;;1.00;;
6101;SDS011;3081;50.584;7.032;2023-04-24T09:47:37;2.53;;;0.60;;
6101;SDS011;3081;50.584;7.032;2023-04-24T09:50:12;2.00;;;0.67;;
6101;SDS011;3081;50.584;7.032;2023-04-24T09:52:40;2.63;;;1.00;;
6101;SDS011;3081;50.584;7.032;2023-04-24T09:55:17;1.90;;;0.60;;
6101;SDS011;3081;50.584;7.032;2023-04-24T09:57:49;1.90;;;0.70;;
6101;SDS011;3081;50.584;7.032;2023-04-24T10:00:18;2.13;;;0.80;;
6101;SDS011;3081;50.584;7.032;2023-04-24T10:02:49;3.07;;;1.10;;
6101;SDS011;3081;50.584;7.032;2023-04-24T10:05:18;2.83;;;1.30;;
6101;SDS011;3081;50.584;7.032;2023-04-24T10:07:45;2.50;;;0.97;;
6101;SDS011;3081;50.584;7.032;2023-04-24T10:10:12;3.27;;;1.60;;
6101;SDS011;3081;50.584;7.032;2023-04-24T10:12:41;3.10;;;1.30;;
6101;SDS011;3081;50.584;7.032;2023-04-24T10:15:10;2.60;;;1.00;;
6101;SDS011;3081;50.584;7.032;2023-04-24T10:17:39;2.50;;;1.20;;
6101;SDS011;3081;50.584;7.032;2023-04-24T10:20:07;2.73;;;1.40;;
6101;SDS011;3081;50.584;7.032;2023-04-24T10:22:35;3.53;;;1.30;;
6101;SDS011;3081;50.584;7.032;2023-04-24T10:25:03;2.63;;;1.20;;
6101;SDS011;3081;50.584;7.032;2023-04-24T10:27:31;3.40;;;1.60;;
6101;SDS011;3081;50.584;7.032;2023-04-24T10:30:02;4.47;;;2.10;;
6101;SDS011;3081;50.584;7.032;2023-04-24T10:32:30;6.67;;;2.33;;
6101;SDS011;3081;50.584;7.032;2023-04-24T10:34:57;4.80;;;2.00;;
6101;SDS011;3081;50.584;7.032;2023-04-24T10:37:24;3.93;;;2.00;;
6101;SDS011;3081;50.584;7.032;2023-04-24T10:39:52;3.30;;;1.63;;
6101;SDS011;3081;50.584;7.032;2023-04-24T10:42:19;5.97;;;3.33;;
6101;SDS011;3081;50.584;7.032;2023-04-24T10:44:47;4.83;;;2.40;;
6101;SDS011;3081;50.584;7.032;2023-04-24T10:47:15;4.63;;;2.77;;
6101;SDS011;3081;50.584;7.032;2023-04-24T10:49:42;4.63;;;2.20;;
6101;SDS011;3081;50.584;7.032;2023-04-24T10:52:09;3.67;;;1.70;;
6101;SDS011;3081;50.584;7.032;2023-04-24T10:54:41;3.90;;;1.93;;
6101;SDS011;3081;50.584;7.032;2023-04-24T10:57:25;8.83;;;3.30;;
6101;SDS011;3081;50.584;7.032;2023-04-24T11:00:15;4.33;;;2.07;;
6101;SDS011;3081;50.584;7.032;2023-04-24T11:02:46;3.87;;;1.83;;
6101;SDS011;3081;50.584;7.032;2023-04-24T11:05:18;4.23;;;2.00;;
6101;SDS011;3081;50.584;7.032;2023-04-24T11:10:38;5.30;;;2.23;;
6101;SDS011;3081;50.584;7.032;2023-04-24T11:13:06;5.77;;;2.10;;
6101;SDS011;3081;50.584;7.032;2023-04-24T11:15:34;5.70;;;1.70;;
6101;SDS011;3081;50.584;7.032;2023-04-24T11:18:02;9.20;;;2.80;;
6101;SDS011;3081;50.584;7.032;2023-04-24T11:20:29;7.30;;;1.67;;
6101;SDS011;3081;50.584;7.032;2023-04-24T11:22:58;7.90;;;2.17;;
6101;SDS011;3081;50.584;7.032;2023-04-24T11:25:31;7.60;;;2.57;;
6101;SDS011;3081;50.584;7.032;2023-04-24T11:28:05;9.50;;;3.50;;
6101;SDS011;3081;50.584;7.032;2023-04-24T11:30:32;8.93;;;2.70;;
6101;SDS011;3081;50.584;7.032;2023-04-24T11:33:05;6.83;;;2.07;;
6101;SDS011;3081;50.584;7.032;2023-04-24T11:35:35;6.07;;;2.03;;
6101;SDS011;3081;50.584;7.032;2023-04-24T11:38:05;5.97;;;2.13;;
6101;SDS011;3081;50.584;7.032;2023-04-24T11:40:33;6.67;;;2.30;;
6101;SDS011;3081;50.584;7.032;2023-04-24T11:43:00;7.33;;;2.50;;
6101;SDS011;3081;50.584;7.032;2023-04-24T11:45:29;4.63;;;1.43;;
6101;SDS011;3081;50.584;7.032;2023-04-24T11:47:57;4.33;;;1.87;;
6101;SDS011;3081;50.584;7.032;2023-04-24T11:50:26;3.50;;;1.47;;
6101;SDS011;3081;50.584;7.032;2023-04-24T11:52:54;13.77;;;2.03;;
6101;SDS011;3081;50.584;7.032;2023-04-24T11:55:25;4.37;;;1.90;;
6101;SDS011;3081;50.584;7.032;2023-04-24T11:57:53;6.67;;;2.50;;
6101;SDS011;3081;50.584;7.032;2023-04-24T12:00:23;6.53;;;1.77;;
6101;SDS011;3081;50.584;7.032;2023-04-24T12:02:51;6.53;;;2.27;;
6101;SDS011;3081;50.584;7.032;2023-04-24T12:05:30;11.90;;;2.97;;
6101;SDS011;3081;50.584;7.032;2023-04-24T12:07:57;7.43;;;2.83;;
6101;SDS011;3081;50.584;7.032;2023-04-24T12:10:24;6.97;;;2.30;;
6101;SDS011;3081;50.584;7.032;2023-04-24T12:12:53;8.20;;;2.90;;
6101;SDS011;3081;50.584;7.032;2023-04-24T12:15:21;9.50;;;2.90;;
6101;SDS011;3081;50.584;7.032;2023-04-24T12:17:50;6.27;;;1.90;;
6101;SDS011;3081;50.584;7.032;2023-04-24T12:20:23;12.50;;;3.30;;
6101;SDS011;3081;50.584;7.032;2023-04-24T12:22:52;8.73;;;2.90;;
6101;SDS011;3081;50.584;7.032;2023-04-24T12:25:20;10.13;;;3.90;;
6101;SDS011;3081;50.584;7.032;2023-04-24T12:27:52;12.40;;;5.57;;
6101;SDS011;3081;50.584;7.032;2023-04-24T12:30:20;14.60;;;4.87;;
6101;SDS011;3081;50.584;7.032;2023-04-24T12:32:52;10.83;;;3.70;;
6101;SDS011;3081;50.584;7.032;2023-04-24T12:35:20;12.10;;;3.03;;
6101;SDS011;3081;50.584;7.032;2023-04-24T12:37:48;16.53;;;3.13;;
6101;SDS011;3081;50.584;7.032;2023-04-24T12:40:17;12.83;;;4.47;;
6101;SDS011;3081;50.584;7.032;2023-04-24T12:42:46;15.10;;;4.10;;
6101;SDS011;3081;50.584;7.032;2023-04-24T12:45:14;11.57;;;3.53;;
6101;SDS011;3081;50.584;7.032;2023-04-24T12:47:43;11.27;;;3.50;;
6101;SDS011;3081;50.584;7.032;2023-04-24T12:50:11;8.40;;;2.20;;
6101;SDS011;3081;50.584;7.032;2023-04-24T12:52:39;9.67;;;2.77;;
6101;SDS011;3081;50.584;7.032;2023-04-24T12:55:06;10.73;;;3.00;;
6101;SDS011;3081;50.584;7.032;2023-04-24T12:57:36;10.53;;;2.97;;
6101;SDS011;3081;50.584;7.032;2023-04-24T13:00:03;11.10;;;2.60;;
6101;SDS011;3081;50.584;7.032;2023-04-24T13:02:31;9.53;;;2.70;;
6101;SDS011;3081;50.584;7.032;2023-04-24T13:05:00;9.40;;;3.30;;
6101;SDS011;3081;50.584;7.032;2023-04-24T13:07:27;10.00;;;3.70;;
6101;SDS011;3081;50.584;7.032;2023-04-24T13:09:54;9.10;;;3.10;;
6101;SDS011;3081;50.584;7.032;2023-04-24T13:12:22;7.90;;;2.60;;
6101;SDS011;3081;50.584;7.032;2023-04-24T13:14:51;12.90;;;4.00;;
6101;SDS011;3081;50.584;7.032;2023-04-24T13:17:18;11.27;;;3.77;;
6101;SDS011;3081;50.584;7.032;2023-04-24T13:19:45;10.73;;;4.10;;
6101;SDS011;3081;50.584;7.032;2023-04-24T13:22:12;14.27;;;4.50;;
6101;SDS011;3081;50.584;7.032;2023-04-24T13:24:39;11.60;;;4.30;;
6101;SDS011;3081;50.584;7.032;2023-04-24T13:27:06;12.50;;;4.80;;
6101;SDS011;3081;50.584;7.032;2023-04-24T13:29:34;11.83;;;4.10;;
6101;SDS011;3081;50.584;7.032;2023-04-24T13:32:02;13.10;;;4.47;;
6101;SDS011;3081;50.584;7.032;2023-04-24T13:34:29;10.20;;;2.63;;
6101;SDS011;3081;50.584;7.032;2023-04-24T13:36:56;10.33;;;2.50;;
6101;SDS011;3081;50.584;7.032;2023-04-24T13:39:24;10.37;;;2.70;;
6101;SDS011;3081;50.584;7.032;2023-04-24T13:41:52;19.90;;;3.80;;
6101;SDS011;3081;50.584;7.032;2023-04-24T13:44:19;11.27;;;3.80;;
6101;SDS011;3081;50.584;7.032;2023-04-24T13:46:48;15.77;;;3.73;;
6101;SDS011;3081;50.584;7.032;2023-04-24T13:49:18;17.63;;;5.10;;
6101;SDS011;3081;50.584;7.032;2023-04-24T13:51:45;14.27;;;4.50;;
6101;SDS011;3081;50.584;7.032;2023-04-24T13:54:12;10.97;;;3.77;;
6101;SDS011;3081;50.584;7.032;2023-04-24T13:56:39;10.30;;;2.93;;
6101;SDS011;3081;50.584;7.032;2023-04-24T13:59:06;10.80;;;3.80;;
6101;SDS011;3081;50.584;7.032;2023-04-24T14:01:33;10.13;;;3.33;;
6101;SDS011;3081;50.584;7.032;2023-04-24T14:04:01;10.30;;;3.20;;
6101;SDS011;3081;50.584;7.032;2023-04-24T14:06:29;16.83;;;3.07;;
6101;SDS011;3081;50.584;7.032;2023-04-24T14:08:56;10.67;;;3.47;;
6101;SDS011;3081;50.584;7.032;2023-04-24T14:11:24;10.43;;;3.20;;
6101;SDS011;3081;50.584;7.032;2023-04-24T14:13:53;10.47;;;2.73;;
6101;SDS011;3081;50.584;7.032;2023-04-24T14:16:21;15.20;;;4.00;;
6101;SDS011;3081;50.584;7.032;2023-04-24T14:18:48;11.70;;;3.63;;
6101;SDS011;3081;50.584;7.032;2023-04-24T14:21:15;9.40;;;2.97;;
6101;SDS011;3081;50.584;7.032;2023-04-24T14:23:43;14.23;;;4.00;;
6101;SDS011;3081;50.584;7.032;2023-04-24T14:26:10;12.00;;;2.87;;
6101;SDS011;3081;50.584;7.032;2023-04-24T14:28:37;9.30;;;2.93;;
6101;SDS011;3081;50.584;7.032;2023-04-24T14:31:04;11.37;;;3.93;;
6101;SDS011;3081;50.584;7.032;2023-04-24T14:33:31;10.60;;;3.07;;
6101;SDS011;3081;50.584;7.032;2023-04-24T14:35:58;13.90;;;3.20;;
6101;SDS011;3081;50.584;7.032;2023-04-24T14:38:27;11.10;;;2.90;;
6101;SDS011;3081;50.584;7.032;2023-04-24T14:40:55;11.57;;;2.80;;
6101;SDS011;3081;50.584;7.032;2023-04-24T14:43:22;11.13;;;3.53;;
6101;SDS011;3081;50.584;7.032;2023-04-24T14:45:49;10.57;;;3.10;;
6101;SDS011;3081;50.584;7.032;2023-04-24T14:48:16;9.90;;;2.83;;
6101;SDS011;3081;50.584;7.032;2023-04-24T14:50:43;12.03;;;4.60;;
6101;SDS011;3081;50.584;7.032;2023-04-24T14:53:10;18.30;;;4.97;;
6101;SDS011;3081;50.584;7.032;2023-04-24T14:55:37;14.23;;;3.70;;
6101;SDS011;3081;50.584;7.032;2023-04-24T14:58:06;13.00;;;3.03;;
6101;SDS011;3081;50.584;7.032;2023-04-24T15:00:33;12.33;;;3.37;;
6101;SDS011;3081;50.584;7.032;2023-04-24T15:03:00;10.40;;;2.63;;
6101;SDS011;3081;50.584;7.032;2023-04-24T15:05:27;9.07;;;2.97;;
6101;SDS011;3081;50.584;7.032;2023-04-24T15:07:53;10.87;;;2.90;;
6101;SDS011;3081;50.584;7.032;2023-04-24T15:10:20;7.20;;;1.93;;
6101;SDS011;3081;50.584;7.032;2023-04-24T15:12:48;10.13;;;3.00;;
6101;SDS011;3081;50.584;7.032;2023-04-24T15:15:17;7.90;;;2.17;;
6101;SDS011;3081;50.584;7.032;2023-04-24T15:17:44;8.43;;;2.67;;
6101;SDS011;3081;50.584;7.032;2023-04-24T15:20:11;7.90;;;2.50;;